Time;durP1;ratioP1;P1;durP2;ratioP2;P2;SDS_P1;SDS_P2;PMS_P1;PMS_P2;Temp;Humidity;BMP_temperature;BMP_pressure;BME280_temperature;BME280_humidity;BME280_pressure;Samples;Min_cycle;Max_cycle;Signal;HPM_P1;HPM_P2
2022/11/18 05:05:16;;;;;;;6.97;3.20;;;;;;;;;;5372625;23;20047;-67
2022/11/18 05:07:42;;;;;;;6.13;3.70;;;;;;;;;;4952831;29;20083;-65
2022/11/18 05:10:08;;;;;;;7.53;3.50;;;;;;;;;;4953640;29;20035;-60
2022/11/18 05:12:49;;;;;;;7.90;3.70;;;;;;;;;;4953274;29;20122;-60
2022/11/18 05:15:16;;;;;;;5.25;2.47;;;;;;;;;;4954293;29;20023;-61
2022/11/18 05:17:42;;;;;;;10.18;4.63;;;;;;;;;;4953229;29;20043;-63
2022/11/18 05:20:09;;;;;;;14.63;6.95;;;;;;;;;;4953428;29;20082;-61
2022/11/18 05:22:35;;;;;;;15.02;7.05;;;;;;;;;;4953512;29;20404;-62
2022/11/18 05:25:01;;;;;;;12.48;6.13;;;;;;;;;;4953529;29;20024;-66
2022/11/18 05:27:27;;;;;;;13.35;6.35;;;;;;;;;;4953228;29;20038;-61
2022/11/18 05:29:53;;;;;;;10.38;5.40;;;;;;;;;;4952972;29;20562;-66
2022/11/18 05:32:19;;;;;;;11.05;4.95;;;;;;;;;;4952979;29;20778;-66
2022/11/18 05:34:45;;;;;;;12.35;6.13;;;;;;;;;;4953003;29;20027;-66
2022/11/18 05:37:11;;;;;;;11.38;5.97;;;;;;;;;;4952810;29;20024;-67
2022/11/18 05:39:37;;;;;;;13.93;5.45;;;;;;;;;;4952808;29;20479;-61
2022/11/18 05:44:49;;;;;;;10.50;5.72;;;;;;;;;;4953312;29;20042;-61
2022/11/18 05:47:15;;;;;;;13.43;5.60;;;;;;;;;;4953205;29;20110;-63
2022/11/18 05:49:41;;;;;;;10.55;5.65;;;;;;;;;;4952808;29;20102;-62
2022/11/18 05:52:07;;;;;;;15.50;6.45;;;;;;;;;;4952833;29;20041;-61
2022/11/18 05:54:33;;;;;;;11.63;5.63;;;;;;;;;;4952940;29;20580;-62
2022/11/18 05:56:59;;;;;;;8.30;4.30;;;;;;;;;;4952752;29;20050;-62
2022/11/18 05:59:25;;;;;;;9.20;4.55;;;;;;;;;;4952522;29;20431;-61
2022/11/18 06:02:06;;;;;;;10.68;4.60;;;;;;;;;;4952838;29;20027;-61
2022/11/18 06:04:36;;;;;;;10.65;4.55;;;;;;;;;;4952543;29;20395;-65
2022/11/18 06:07:05;;;;;;;10.93;4.75;;;;;;;;;;4952765;28;20047;-63
2022/11/18 06:09:33;;;;;;;12.32;4.68;;;;;;;;;;4952850;29;20455;-66
2022/11/18 06:11:59;;;;;;;10.15;4.53;;;;;;;;;;4952911;29;20581;-68
2022/11/18 06:14:35;;;;;;;11.40;5.50;;;;;;;;;;4956561;28;20395;-69
2022/11/18 06:17:04;;;;;;;12.30;6.30;;;;;;;;;;4956949;29;20089;-68
2022/11/18 06:19:31;;;;;;;18.50;7.35;;;;;;;;;;4952741;29;20031;-61
2022/11/18 06:21:58;;;;;;;21.35;9.55;;;;;;;;;;4937515;29;20071;-67
2022/11/18 06:24:24;;;;;;;15.02;7.18;;;;;;;;;;4938028;29;20589;-65
2022/11/18 06:26:50;;;;;;;11.48;5.45;;;;;;;;;;4940885;29;20117;-65
2022/11/18 06:29:18;;;;;;;13.82;5.38;;;;;;;;;;4957139;29;20760;-62
2022/11/18 06:31:44;;;;;;;19.90;8.63;;;;;;;;;;4956804;29;20035;-68
2022/11/18 06:34:10;;;;;;;20.33;8.52;;;;;;;;;;4965794;28;20110;-65
2022/11/18 06:36:36;;;;;;;14.05;6.15;;;;;;;;;;4963763;28;20066;-62
2022/11/18 06:39:03;;;;;;;10.27;5.80;;;;;;;;;;4965501;28;20212;-63
2022/11/18 06:41:29;;;;;;;16.45;5.97;;;;;;;;;;4965202;28;20135;-60
2022/11/18 06:43:55;;;;;;;11.57;6.50;;;;;;;;;;4963358;28;20031;-61
2022/11/18 06:49:06;;;;;;;18.95;8.95;;;;;;;;;;4966127;28;20049;-67
2022/11/18 06:51:32;;;;;;;13.65;7.70;;;;;;;;;;4963582;28;20015;-60
2022/11/18 06:53:58;;;;;;;19.65;9.93;;;;;;;;;;4965416;28;20029;-62
2022/11/18 06:56:24;;;;;;;17.30;9.80;;;;;;;;;;4963849;28;20094;-66
2022/11/18 06:58:54;;;;;;;20.63;9.75;;;;;;;;;;4963295;28;20042;-64
2022/11/18 07:01:21;;;;;;;19.98;10.32;;;;;;;;;;4960872;28;20054;-69
2022/11/18 07:03:48;;;;;;;23.55;9.70;;;;;;;;;;4963638;28;20027;-63
2022/11/18 07:06:16;;;;;;;20.88;9.98;;;;;;;;;;4964519;28;20398;-65
2022/11/18 07:08:43;;;;;;;17.95;9.38;;;;;;;;;;4963199;28;20126;-63
2022/11/18 07:11:11;;;;;;;16.08;9.50;;;;;;;;;;4963384;28;20023;-64
2022/11/18 07:13:37;;;;;;;18.25;9.77;;;;;;;;;;4964602;28;20541;-62
2022/11/18 07:16:03;;;;;;;16.50;9.88;;;;;;;;;;4963478;28;20107;-69
2022/11/18 07:18:30;;;;;;;16.48;9.80;;;;;;;;;;4971698;28;20106;-61
2022/11/18 07:20:56;;;;;;;24.92;12.57;;;;;;;;;;4974689;28;20031;-68
2022/11/18 07:23:22;;;;;;;24.85;13.07;;;;;;;;;;4970373;28;20064;-63
2022/11/18 07:25:48;;;;;;;23.45;13.20;;;;;;;;;;4959722;28;20573;-60
2022/11/18 07:28:14;;;;;;;23.42;12.60;;;;;;;;;;4963765;28;20093;-62
2022/11/18 07:30:40;;;;;;;21.77;12.82;;;;;;;;;;4960460;28;20471;-70
2022/11/18 07:33:06;;;;;;;28.75;15.35;;;;;;;;;;4961992;28;20114;-70
2022/11/18 07:35:32;;;;;;;28.98;15.88;;;;;;;;;;4964044;28;20043;-71
2022/11/18 07:37:58;;;;;;;28.33;15.90;;;;;;;;;;4962796;28;20035;-63
2022/11/18 07:40:24;;;;;;;26.92;15.85;;;;;;;;;;4963643;28;20023;-70
2022/11/18 07:42:50;;;;;;;28.27;14.25;;;;;;;;;;4968760;28;20038;-62
2022/11/18 07:45:16;;;;;;;26.67;14.43;;;;;;;;;;4955027;29;20027;-62
2022/11/18 07:50:18;;;;;;;23.70;12.65;;;;;;;;;;5169398;23;20274;-63
2022/11/18 07:52:44;;;;;;;19.80;11.82;;;;;;;;;;4973333;28;20049;-60
2022/11/18 07:55:10;;;;;;;20.98;12.13;;;;;;;;;;4973869;28;20018;-66
2022/11/18 07:57:36;;;;;;;20.73;11.75;;;;;;;;;;4974099;28;20031;-57
2022/11/18 08:00:03;;;;;;;22.23;12.63;;;;;;;;;;4973862;28;20034;-59
2022/11/18 08:02:29;;;;;;;23.90;13.15;;;;;;;;;;4973867;28;20030;-67
2022/11/18 08:04:55;;;;;;;19.45;11.48;;;;;;;;;;4973700;28;20057;-60
2022/11/18 08:07:21;;;;;;;19.42;10.98;;;;;;;;;;4973470;28;20448;-60
2022/11/18 08:09:47;;;;;;;20.67;12.30;;;;;;;;;;4972152;28;20031;-60
2022/11/18 08:12:13;;;;;;;29.38;15.27;;;;;;;;;;4972195;28;20510;-59
2022/11/18 08:14:39;;;;;;;30.98;15.82;;;;;;;;;;4972245;28;20030;-59
2022/11/18 08:17:05;;;;;;;27.88;14.60;;;;;;;;;;4972252;28;20046;-58
2022/11/18 08:19:33;;;;;;;26.80;15.98;;;;;;;;;;4971736;28;20065;-59
2022/11/18 08:21:59;;;;;;;24.95;13.55;;;;;;;;;;4946865;28;20047;-70
2022/11/18 08:24:25;;;;;;;24.10;13.10;;;;;;;;;;4972778;28;20031;-59
2022/11/18 08:26:51;;;;;;;25.52;14.13;;;;;;;;;;4973198;28;20030;-67
2022/11/18 08:29:17;;;;;;;27.92;14.48;;;;;;;;;;4972971;28;21167;-59
2022/11/18 08:31:43;;;;;;;27.40;16.00;;;;;;;;;;4970356;28;20398;-59
2022/11/18 08:34:09;;;;;;;33.53;17.52;;;;;;;;;;4973015;28;20089;-64
2022/11/18 08:36:37;;;;;;;35.13;18.20;;;;;;;;;;4971444;28;20062;-64
2022/11/18 08:39:04;;;;;;;38.65;19.65;;;;;;;;;;4972387;28;20049;-61
2022/11/18 08:41:36;;;;;;;34.47;18.77;;;;;;;;;;4972155;28;20019;-59
2022/11/18 08:44:03;;;;;;;33.55;18.33;;;;;;;;;;4969280;28;20031;-64
2022/11/18 08:46:29;;;;;;;33.22;17.95;;;;;;;;;;4972749;28;20463;-69
2022/11/18 08:48:55;;;;;;;35.22;19.38;;;;;;;;;;4972567;28;20101;-58
2022/11/18 08:51:21;;;;;;;36.13;20.48;;;;;;;;;;4937973;29;20455;-59
2022/11/18 08:53:48;;;;;;;41.15;21.23;;;;;;;;;;4952765;29;20049;-59
2022/11/18 08:56:15;;;;;;;38.97;19.80;;;;;;;;;;4952805;29;20475;-59
2022/11/18 08:58:41;;;;;;;40.50;20.35;;;;;;;;;;4952710;29;20150;-58
2022/11/18 09:01:07;;;;;;;41.42;22.33;;;;;;;;;;4952997;29;20102;-60
2022/11/18 09:03:33;;;;;;;44.33;24.30;;;;;;;;;;4952823;29;20094;-67
2022/11/18 09:06:09;;;;;;;41.28;23.02;;;;;;;;;;4952645;29;20027;-58
2022/11/18 09:08:36;;;;;;;36.55;22.20;;;;;;;;;;4952765;29;20035;-60
2022/11/18 09:11:06;;;;;;;38.03;20.83;;;;;;;;;;4952905;29;20042;-64
2022/11/18 09:13:32;;;;;;;40.38;22.17;;;;;;;;;;4952691;29;20142;-68
2022/11/18 09:15:59;;;;;;;43.65;23.05;;;;;;;;;;4935345;29;20027;-68
2022/11/18 09:18:25;;;;;;;49.08;25.92;;;;;;;;;;4952553;29;20035;-59
2022/11/18 09:20:55;;;;;;;55.72;31.65;;;;;;;;;;4935095;29;20082;-59
2022/11/18 09:23:21;;;;;;;57.85;30.80;;;;;;;;;;4952673;29;20102;-59
2022/11/18 09:25:47;;;;;;;58.50;30.58;;;;;;;;;;4952658;29;20051;-58
2022/11/18 09:28:13;;;;;;;55.30;33.05;;;;;;;;;;4952455;29;20031;-59
2022/11/18 09:30:40;;;;;;;66.40;34.10;;;;;;;;;;4952688;29;20023;-68
2022/11/18 09:33:06;;;;;;;51.55;30.50;;;;;;;;;;4952416;29;20042;-59
2022/11/18 09:35:35;;;;;;;59.22;31.33;;;;;;;;;;4952329;29;20439;-58
2022/11/18 09:38:01;;;;;;;52.58;30.05;;;;;;;;;;4952337;29;20030;-59
2022/11/18 09:40:27;;;;;;;55.50;30.50;;;;;;;;;;4952784;29;20038;-59
2022/11/18 09:43:09;;;;;;;57.22;31.30;;;;;;;;;;4952502;29;20035;-60
2022/11/18 09:45:38;;;;;;;62.03;30.73;;;;;;;;;;4952537;29;20027;-59
2022/11/18 09:49:11;;;;;;;56.67;31.27;;;;;;;;;;4951840;28;20035;-58
2022/11/18 09:51:09;;;;;;;59.05;33.25;;;;;;;;;;4952072;28;20055;-59
2022/11/18 09:53:35;;;;;;;55.17;31.33;;;;;;;;;;4952238;29;20035;-59
2022/11/18 09:56:02;;;;;;;56.25;33.17;;;;;;;;;;4952178;29;20015;-59
2022/11/18 09:58:33;;;;;;;56.95;32.88;;;;;;;;;;4936938;29;20122;-58
2022/11/18 10:01:00;;;;;;;60.00;33.35;;;;;;;;;;4932772;29;20032;-64
2022/11/18 10:03:27;;;;;;;49.10;28.00;;;;;;;;;;4933043;29;20039;-58
2022/11/18 10:06:01;;;;;;;54.63;29.38;;;;;;;;;;4932843;29;20036;-61
2022/11/18 10:08:31;;;;;;;57.35;32.55;;;;;;;;;;4932419;29;20107;-58
2022/11/18 10:11:05;;;;;;;55.88;31.00;;;;;;;;;;4932906;29;20032;-59
2022/11/18 10:13:49;;;;;;;45.95;26.73;;;;;;;;;;4932730;29;20115;-59
2022/11/18 10:16:15;;;;;;;40.55;23.80;;;;;;;;;;4936764;29;20042;-58
2022/11/18 10:18:46;;;;;;;41.50;23.92;;;;;;;;;;4935494;29;20031;-59
2022/11/18 10:21:24;;;;;;;39.10;22.85;;;;;;;;;;4932831;29;20035;-58
2022/11/18 10:23:58;;;;;;;41.08;24.75;;;;;;;;;;4932779;29;20122;-59
2022/11/18 10:26:33;;;;;;;43.03;25.30;;;;;;;;;;4932787;29;20027;-61
2022/11/18 10:28:59;;;;;;;61.35;34.60;;;;;;;;;;4933078;29;20088;-69
2022/11/18 10:31:25;;;;;;;83.97;45.45;;;;;;;;;;4932621;29;20433;-59
2022/11/18 10:33:58;;;;;;;79.03;46.67;;;;;;;;;;4932742;29;20039;-58
2022/11/18 10:36:25;;;;;;;87.07;50.17;;;;;;;;;;4933007;29;20028;-58
2022/11/18 10:39:04;;;;;;;92.70;54.90;;;;;;;;;;4932967;29;20030;-66
2022/11/18 10:41:37;;;;;;;91.05;54.85;;;;;;;;;;4932792;29;20035;-59
2022/11/18 10:44:03;;;;;;;92.95;55.60;;;;;;;;;;4932673;29;20035;-58
2022/11/18 10:46:31;;;;;;;91.40;53.80;;;;;;;;;;4932730;29;20027;-58
2022/11/18 10:49:09;;;;;;;86.35;50.38;;;;;;;;;;4932372;29;20046;-59
2022/11/18 10:51:40;;;;;;;78.35;47.33;;;;;;;;;;4914248;29;20401;-58
2022/11/18 10:54:17;;;;;;;68.35;39.60;;;;;;;;;;4932406;29;20165;-68
2022/11/18 10:56:49;;;;;;;61.28;37.55;;;;;;;;;;4932539;29;20043;-58
2022/11/18 10:59:24;;;;;;;60.47;34.70;;;;;;;;;;4933523;29;20024;-58
2022/11/18 11:02:11;;;;;;;47.92;28.42;;;;;;;;;;4936218;29;20357;-58
2022/11/18 11:04:38;;;;;;;49.72;28.58;;;;;;;;;;4935814;29;20024;-59
2022/11/18 11:07:33;;;;;;;46.47;27.27;;;;;;;;;;4919020;29;20452;-58
2022/11/18 11:09:59;;;;;;;46.85;25.85;;;;;;;;;;4909746;29;20110;-59
2022/11/18 11:12:27;;;;;;;43.05;27.42;;;;;;;;;;4936072;29;20139;-59
2022/11/18 11:14:55;;;;;;;48.03;26.25;;;;;;;;;;4935943;29;20415;-59
2022/11/18 11:17:28;;;;;;;40.72;24.35;;;;;;;;;;4936020;29;20123;-61
2022/11/18 11:20:06;;;;;;;42.00;24.95;;;;;;;;;;4935569;29;20163;-69
2022/11/18 11:22:32;;;;;;;47.42;26.70;;;;;;;;;;4935635;29;20028;-63
2022/11/18 11:24:58;;;;;;;46.42;25.92;;;;;;;;;;4935497;29;20036;-58
2022/11/18 11:27:35;;;;;;;47.25;26.73;;;;;;;;;;4935588;29;20079;-59
2022/11/18 11:30:30;;;;;;;46.30;27.95;;;;;;;;;;4935781;29;20172;-58
2022/11/18 11:33:11;;;;;;;46.17;28.48;;;;;;;;;;4842438;29;20391;-58
2022/11/18 11:35:57;;;;;;;45.58;28.65;;;;;;;;;;4857991;29;20037;-58
2022/11/18 11:38:35;;;;;;;49.67;30.52;;;;;;;;;;4854219;29;20048;-59
2022/11/18 11:41:15;;;;;;;48.70;30.90;;;;;;;;;;4858180;29;20037;-59
2022/11/18 11:44:00;;;;;;;53.03;30.98;;;;;;;;;;4857570;29;20486;-62
2022/11/18 11:46:41;;;;;;;48.92;30.77;;;;;;;;;;4842409;29;20045;-69
2022/11/18 11:49:17;;;;;;;48.45;31.27;;;;;;;;;;4857809;29;20077;-64
2022/11/18 11:51:50;;;;;;;49.67;29.55;;;;;;;;;;4857018;29;20058;-67
2022/11/18 11:54:16;;;;;;;;;;;;;;;;;;4858410;29;20487;-68
2022/11/18 11:57:00;;;;;;;53.30;32.17;;;;;;;;;;4857866;29;19908;-61
2022/11/18 11:59:29;;;;;;;48.97;30.52;;;;;;;;;;4857751;29;20174;-60
2022/11/18 12:02:10;;;;;;;55.55;31.33;;;;;;;;;;4857309;29;20551;-58
2022/11/18 12:04:39;;;;;;;47.50;29.80;;;;;;;;;;4857459;29;20113;-58
2022/11/18 12:07:06;;;;;;;53.10;31.13;;;;;;;;;;4857275;29;20026;-60
2022/11/18 12:09:32;;;;;;;56.15;33.10;;;;;;;;;;4891597;29;20385;-58
2022/11/18 12:12:04;;;;;;;58.45;33.70;;;;;;;;;;4915577;29;20040;-58
2022/11/18 12:14:36;;;;;;;65.22;36.63;;;;;;;;;;4915581;29;20047;-68
2022/11/18 12:17:10;;;;;;;57.70;33.92;;;;;;;;;;4915854;29;20107;-58
2022/11/18 12:19:38;;;;;;;53.38;32.40;;;;;;;;;;4915514;29;20063;-59
2022/11/18 12:22:05;;;;;;;52.78;32.40;;;;;;;;;;4920062;29;20071;-64
2022/11/18 12:24:33;;;;;;;56.05;32.20;;;;;;;;;;4923156;29;20385;-58
2022/11/18 12:27:04;;;;;;;47.83;29.05;;;;;;;;;;4924127;29;20603;-58
2022/11/18 12:29:36;;;;;;;47.50;27.83;;;;;;;;;;4928881;29;20106;-65
2022/11/18 12:32:03;;;;;;;45.47;25.40;;;;;;;;;;4935254;29;20024;-59
2022/11/18 12:34:31;;;;;;;47.65;26.10;;;;;;;;;;4928458;29;20032;-60
2022/11/18 12:37:05;;;;;;;45.92;26.52;;;;;;;;;;4925654;29;20511;-59
2022/11/18 12:39:35;;;;;;;50.50;27.42;;;;;;;;;;4919263;29;20122;-58
2022/11/18 12:44:47;;;;;;;49.25;29.23;;;;;;;;;;4915917;29;20146;-58
2022/11/18 12:47:14;;;;;;;48.97;29.35;;;;;;;;;;4919889;29;20118;-60
2022/11/18 12:49:43;;;;;;;56.95;33.72;;;;;;;;;;4925285;29;20032;-59
2022/11/18 12:52:28;;;;;;;59.65;34.22;;;;;;;;;;4937681;29;20395;-66
2022/11/18 12:54:55;;;;;;;62.30;36.67;;;;;;;;;;4940437;29;20032;-59
2022/11/18 12:57:21;;;;;;;67.28;38.90;;;;;;;;;;4943336;29;20035;-59
2022/11/18 12:59:47;;;;;;;65.70;40.78;;;;;;;;;;4940250;29;20076;-60
2022/11/18 13:02:18;;;;;;;65.70;38.28;;;;;;;;;;4950809;29;20526;-61
2022/11/18 13:04:44;;;;;;;60.03;35.95;;;;;;;;;;4953187;29;20019;-72
2022/11/18 13:08:11;;;;;;;55.33;34.75;;;;;;;;;;4953037;29;20038;-70
2022/11/18 13:09:58;;;;;;;60.15;34.13;;;;;;;;;;4952792;29;20500;-66
2022/11/18 13:12:26;;;;;;;58.30;33.78;;;;;;;;;;4953297;29;20042;-60
2022/11/18 13:17:57;;;;;;;49.05;29.67;;;;;;;;;;4953186;29;20034;-59
2022/11/18 13:20:34;;;;;;;44.80;25.42;;;;;;;;;;4943895;29;20028;-59
2022/11/18 13:25:45;;;;;;;45.45;27.33;;;;;;;;;;4938729;29;20062;-67
2022/11/18 13:28:29;;;;;;;46.20;28.38;;;;;;;;;;4952926;29;20027;-67
2022/11/18 13:30:55;;;;;;;49.08;29.17;;;;;;;;;;4953337;29;20034;-69
2022/11/18 13:33:21;;;;;;;43.22;26.55;;;;;;;;;;4941629;29;20040;-60
2022/11/18 13:35:47;;;;;;;41.42;24.83;;;;;;;;;;4932852;29;20106;-66
2022/11/18 13:38:23;;;;;;;35.80;21.20;;;;;;;;;;4935080;29;20097;-59
2022/11/18 13:41:11;;;;;;;36.83;20.83;;;;;;;;;;4941365;29;20035;-72
2022/11/18 13:43:37;;;;;;;26.45;16.17;;;;;;;;;;4943088;29;20058;-72
2022/11/18 13:46:05;;;;;;;26.33;16.67;;;;;;;;;;4945376;29;20142;-69
2022/11/18 13:48:32;;;;;;;27.63;15.25;;;;;;;;;;4939641;29;20468;-65
2022/11/18 13:51:00;;;;;;;26.02;14.35;;;;;;;;;;4937506;29;20052;-62
2022/11/18 13:53:29;;;;;;;27.95;13.60;;;;;;;;;;4933225;29;20047;-68
2022/11/18 13:56:00;;;;;;;22.48;13.52;;;;;;;;;;4933307;29;20023;-73
2022/11/18 13:58:34;;;;;;;18.75;9.23;;;;;;;;;;4933344;29;20023;-72
2022/11/18 14:01:05;;;;;;;18.80;10.98;;;;;;;;;;4932972;29;20039;-60
2022/11/18 14:03:50;;;;;;;21.25;10.95;;;;;;;;;;4933088;29;20050;-62
2022/11/18 14:06:29;;;;;;;21.75;10.73;;;;;;;;;;4932741;29;20090;-66
2022/11/18 14:09:04;;;;;;;16.73;9.85;;;;;;;;;;4933038;29;20087;-60
2022/11/18 14:11:35;;;;;;;20.98;10.15;;;;;;;;;;4933294;29;20023;-59
2022/11/18 14:14:01;;;;;;;15.45;9.55;;;;;;;;;;4933256;29;20488;-59
2022/11/18 14:16:31;;;;;;;20.52;10.23;;;;;;;;;;4932893;29;20027;-69
2022/11/18 14:18:57;;;;;;;17.38;9.77;;;;;;;;;;4932571;29;20035;-64
2022/11/18 14:21:30;;;;;;;19.42;10.27;;;;;;;;;;4932245;29;20028;-60
2022/11/18 14:23:57;;;;;;;18.42;10.85;;;;;;;;;;4932668;29;20487;-70
2022/11/18 14:26:49;;;;;;;19.23;11.07;;;;;;;;;;4932091;29;20040;-66
2022/11/18 14:29:19;;;;;;;20.10;10.77;;;;;;;;;;4929345;29;20083;-60
2022/11/18 14:32:01;;;;;;;20.15;10.95;;;;;;;;;;4934931;29;20032;-61
2022/11/18 14:34:29;;;;;;;19.80;10.23;;;;;;;;;;4949024;28;20028;-61
2022/11/18 14:36:55;;;;;;;19.05;10.50;;;;;;;;;;4938387;29;20035;-61
2022/11/18 14:39:26;;;;;;;21.30;11.10;;;;;;;;;;4938321;29;20598;-59
2022/11/18 14:41:52;;;;;;;23.10;11.15;;;;;;;;;;4955704;29;20117;-59
2022/11/18 14:44:19;;;;;;;21.92;11.45;;;;;;;;;;4955857;29;20034;-60
2022/11/18 14:46:54;;;;;;;20.25;11.30;;;;;;;;;;4955441;29;20035;-69
2022/11/18 14:49:22;;;;;;;32.78;19.10;;;;;;;;;;4955408;29;20050;-58
2022/11/18 14:51:48;;;;;;;35.25;22.63;;;;;;;;;;4955032;29;20391;-59
2022/11/18 14:54:15;;;;;;;35.15;23.55;;;;;;;;;;4955604;29;20067;-59
2022/11/18 14:56:41;;;;;;;38.53;26.45;;;;;;;;;;4955475;29;20772;-59
2022/11/18 14:59:12;;;;;;;40.10;25.90;;;;;;;;;;4955357;29;20031;-59
2022/11/18 15:01:38;;;;;;;27.27;15.23;;;;;;;;;;4955060;29;20023;-59
2022/11/18 15:04:04;;;;;;;31.23;20.30;;;;;;;;;;4955318;29;20584;-63
2022/11/18 15:06:30;;;;;;;35.60;23.27;;;;;;;;;;4954978;29;20039;-59
2022/11/18 15:08:56;;;;;;;37.75;25.02;;;;;;;;;;4948550;29;20023;-59
2022/11/18 15:11:22;;;;;;;33.53;19.00;;;;;;;;;;4944171;29;20058;-64
2022/11/18 15:13:48;;;;;;;34.33;21.80;;;;;;;;;;4937775;29;20040;-68
2022/11/18 15:16:19;;;;;;;23.48;14.07;;;;;;;;;;4952667;29;20035;-67
2022/11/18 15:18:47;;;;;;;29.83;18.65;;;;;;;;;;4945031;29;20027;-59
2022/11/18 15:21:13;;;;;;;28.60;19.08;;;;;;;;;;4947624;29;20439;-59
2022/11/18 15:23:39;;;;;;;33.90;19.25;;;;;;;;;;4953090;29;20030;-60
2022/11/18 15:26:32;;;;;;;28.15;16.95;;;;;;;;;;4942791;29;20027;-62
2022/11/18 15:28:58;;;;;;;25.35;17.08;;;;;;;;;;4937542;29;20032;-66
2022/11/18 15:31:24;;;;;;;24.23;14.45;;;;;;;;;;4944592;29;20031;-61
2022/11/18 15:33:51;;;;;;;24.63;13.73;;;;;;;;;;4944922;29;20040;-67
2022/11/18 15:36:18;;;;;;;23.08;12.82;;;;;;;;;;4940927;29;20027;-66
2022/11/18 15:38:45;;;;;;;20.40;12.95;;;;;;;;;;4935500;29;20384;-66
2022/11/18 15:41:16;;;;;;;21.88;14.10;;;;;;;;;;4935490;29;20024;-59
2022/11/18 15:43:42;;;;;;;21.70;13.93;;;;;;;;;;4937634;29;20053;-58
2022/11/18 15:46:08;;;;;;;17.25;10.13;;;;;;;;;;4943865;28;20035;-59
2022/11/18 15:48:34;;;;;;;21.17;9.95;;;;;;;;;;4925813;29;20442;-59
2022/11/18 15:51:01;;;;;;;15.52;8.65;;;;;;;;;;4943815;29;20066;-68
2022/11/18 15:53:27;;;;;;;16.48;10.35;;;;;;;;;;4943916;29;20051;-59
2022/11/18 15:56:12;;;;;;;17.58;10.95;;;;;;;;;;4942386;29;20484;-61
2022/11/18 15:58:38;;;;;;;18.65;10.23;;;;;;;;;;4944212;29;20039;-67
2022/11/18 16:01:04;;;;;;;17.77;10.13;;;;;;;;;;4943729;29;20012;-59
2022/11/18 16:03:30;;;;;;;18.90;10.93;;;;;;;;;;4942801;29;20028;-59
2022/11/18 16:05:56;;;;;;;17.73;11.57;;;;;;;;;;4944253;29;20360;-59
2022/11/18 16:08:22;;;;;;;19.25;11.82;;;;;;;;;;4943113;29;20035;-60
2022/11/18 16:13:39;;;;;;;20.90;11.95;;;;;;;;;;4944540;29;20082;-64
2022/11/18 16:16:05;;;;;;;22.27;13.20;;;;;;;;;;4943264;29;20047;-60
2022/11/18 16:18:31;;;;;;;20.48;12.80;;;;;;;;;;4942404;29;20475;-59
2022/11/18 16:20:58;;;;;;;20.70;13.23;;;;;;;;;;4944212;29;20015;-65
2022/11/18 16:23:24;;;;;;;23.65;13.43;;;;;;;;;;4942931;29;20043;-67
2022/11/18 16:25:50;;;;;;;21.73;13.25;;;;;;;;;;4942608;29;20178;-66
2022/11/18 16:28:16;;;;;;;25.58;14.40;;;;;;;;;;4944254;29;20026;-59
2022/11/18 16:33:32;;;;;;;22.17;13.25;;;;;;;;;;4952492;29;20077;-66
2022/11/18 16:35:58;;;;;;;26.35;15.00;;;;;;;;;;4953952;29;20054;-67
2022/11/18 16:38:24;;;;;;;21.60;14.32;;;;;;;;;;4953165;29;20031;-61
2022/11/18 16:40:57;;;;;;;22.13;13.07;;;;;;;;;;4943055;29;20039;-70
2022/11/18 16:43:23;;;;;;;21.15;12.30;;;;;;;;;;4943947;29;20024;-70
2022/11/18 16:45:53;;;;;;;17.55;11.48;;;;;;;;;;4942606;29;20028;-59
2022/11/18 16:48:21;;;;;;;20.23;11.18;;;;;;;;;;4942092;29;20031;-59
2022/11/18 16:51:17;;;;;;;16.88;10.82;;;;;;;;;;4941776;29;20091;-60
2022/11/18 16:53:43;;;;;;;27.50;17.88;;;;;;;;;;4943496;29;20118;-68
2022/11/18 16:56:09;;;;;;;26.58;17.33;;;;;;;;;;4925630;29;20356;-59
2022/11/18 16:58:35;;;;;;;20.25;11.95;;;;;;;;;;4942544;29;20028;-63
2022/11/18 17:01:08;;;;;;;20.30;11.32;;;;;;;;;;4941620;29;20473;-59
2022/11/18 17:03:34;;;;;;;16.95;10.45;;;;;;;;;;4924649;29;20399;-68
2022/11/18 17:06:00;;;;;;;17.38;10.77;;;;;;;;;;4933515;29;20412;-65
2022/11/18 17:08:26;;;;;;;18.73;10.93;;;;;;;;;;4933374;29;20039;-59
2022/11/18 17:10:52;;;;;;;19.23;11.90;;;;;;;;;;4933897;29;20046;-68
2022/11/18 17:13:18;;;;;;;18.60;11.65;;;;;;;;;;4933708;29;20046;-60
2022/11/18 17:15:44;;;;;;;20.08;12.63;;;;;;;;;;4933889;29;20028;-65
2022/11/18 17:18:10;;;;;;;23.52;14.75;;;;;;;;;;4934116;29;20106;-62
2022/11/18 17:20:36;;;;;;;23.77;15.40;;;;;;;;;;4933618;29;20042;-59
2022/11/18 17:23:03;;;;;;;27.48;17.30;;;;;;;;;;4933592;29;20357;-68
2022/11/18 17:25:29;;;;;;;31.63;17.25;;;;;;;;;;4933163;29;20392;-69
2022/11/18 17:27:55;;;;;;;32.28;19.15;;;;;;;;;;4941665;29;20069;-69
2022/11/18 17:30:21;;;;;;;27.88;17.20;;;;;;;;;;4921590;29;20489;-60
2022/11/18 17:32:47;;;;;;;24.25;15.88;;;;;;;;;;4932941;29;20399;-61
2022/11/18 17:35:13;;;;;;;23.40;16.23;;;;;;;;;;4933124;29;20388;-61
2022/11/18 17:37:39;;;;;;;30.80;18.83;;;;;;;;;;4933398;29;20031;-58
2022/11/18 17:40:05;;;;;;;31.15;18.63;;;;;;;;;;4933123;29;20039;-68
2022/11/18 17:42:32;;;;;;;29.90;17.67;;;;;;;;;;4932617;29;20028;-65
2022/11/18 17:44:58;;;;;;;29.77;19.40;;;;;;;;;;4932590;29;20774;-65
2022/11/18 17:47:24;;;;;;;35.45;23.52;;;;;;;;;;4932973;29;20036;-62
2022/11/18 17:49:50;;;;;;;33.58;20.38;;;;;;;;;;4932596;29;20074;-59
2022/11/18 17:52:18;;;;;;;27.42;19.30;;;;;;;;;;4933469;29;20032;-68
2022/11/18 17:54:44;;;;;;;30.85;18.77;;;;;;;;;;4915761;29;20107;-68
2022/11/18 17:57:10;;;;;;;29.08;18.77;;;;;;;;;;4936896;29;20119;-68
2022/11/18 17:59:37;;;;;;;26.42;17.73;;;;;;;;;;4942062;29;20403;-66
2022/11/18 18:02:03;;;;;;;25.40;17.55;;;;;;;;;;4947765;29;20255;-64
2022/11/18 18:04:29;;;;;;;25.33;17.23;;;;;;;;;;4952314;29;20033;-67
2022/11/18 18:06:55;;;;;;;28.85;19.02;;;;;;;;;;4948782;29;20063;-58
2022/11/18 18:09:21;;;;;;;32.08;22.60;;;;;;;;;;4951244;29;20047;-69
2022/11/18 18:11:48;;;;;;;37.50;25.50;;;;;;;;;;4949030;29;20028;-69
2022/11/18 18:14:14;;;;;;;29.08;20.33;;;;;;;;;;4933252;29;20031;-62
2022/11/18 18:16:44;;;;;;;28.45;19.15;;;;;;;;;;4923199;29;20023;-70
2022/11/18 18:19:11;;;;;;;32.47;20.77;;;;;;;;;;4946045;29;20110;-69
2022/11/18 18:21:38;;;;;;;30.92;18.33;;;;;;;;;;4952001;29;20394;-69
2022/11/18 18:24:04;;;;;;;30.35;18.67;;;;;;;;;;4951862;29;20488;-67
2022/11/18 18:26:31;;;;;;;30.58;20.00;;;;;;;;;;4952458;29;20027;-68
2022/11/18 18:28:57;;;;;;;30.88;19.85;;;;;;;;;;4948794;29;20039;-71
2022/11/18 18:31:23;;;;;;;27.63;19.38;;;;;;;;;;4947849;29;20023;-70
2022/11/18 18:33:49;;;;;;;38.50;23.02;;;;;;;;;;4943763;29;20523;-70
2022/11/18 18:36:16;;;;;;;49.95;31.88;;;;;;;;;;4938012;29;20027;-59
2022/11/18 18:38:43;;;;;;;33.70;21.90;;;;;;;;;;4933077;29;20079;-68
2022/11/18 18:41:19;;;;;;;29.05;18.35;;;;;;;;;;4938262;29;20396;-68
2022/11/18 18:43:47;;;;;;;28.30;19.20;;;;;;;;;;4941536;29;20814;-58
2022/11/18 18:46:33;;;;;;;33.83;21.10;;;;;;;;;;4941738;29;20034;-65
2022/11/18 18:49:01;;;;;;;39.38;23.30;;;;;;;;;;4926510;29;20067;-71
2022/11/18 18:51:29;;;;;;;44.65;26.38;;;;;;;;;;4939932;29;20039;-61
2022/11/18 18:53:56;;;;;;;33.38;20.65;;;;;;;;;;4942251;29;20500;-57
2022/11/18 18:56:22;;;;;;;33.72;18.25;;;;;;;;;;4951794;29;20027;-70
2022/11/18 18:58:48;;;;;;;33.50;20.58;;;;;;;;;;4915738;29;20055;-71
2022/11/18 19:01:15;;;;;;;36.10;20.38;;;;;;;;;;4939240;29;20047;-58
2022/11/18 19:03:41;;;;;;;29.92;19.98;;;;;;;;;;4941800;29;20531;-62
2022/11/18 19:06:12;;;;;;;31.08;21.05;;;;;;;;;;4941445;29;20543;-60
2022/11/18 19:08:38;;;;;;;35.97;23.70;;;;;;;;;;4942473;29;20028;-59
2022/11/18 19:11:05;;;;;;;35.88;23.75;;;;;;;;;;4941862;29;20035;-59
2022/11/18 19:13:31;;;;;;;31.38;21.02;;;;;;;;;;4940299;29;20047;-71
2022/11/18 19:15:57;;;;;;;27.40;18.33;;;;;;;;;;4942020;29;20027;-68
2022/11/18 19:18:23;;;;;;;21.98;14.52;;;;;;;;;;4941250;29;20059;-67
2022/11/18 19:20:49;;;;;;;23.63;15.13;;;;;;;;;;4941671;29;20455;-64
2022/11/18 19:23:16;;;;;;;19.63;13.57;;;;;;;;;;4943386;29;20031;-60
2022/11/18 19:25:43;;;;;;;22.00;13.98;;;;;;;;;;4935498;29;20079;-59
2022/11/18 19:28:12;;;;;;;24.50;14.30;;;;;;;;;;4934983;29;20451;-59
2022/11/18 19:30:38;;;;;;;19.52;12.77;;;;;;;;;;4935996;29;20047;-59
2022/11/18 19:33:04;;;;;;;17.02;12.18;;;;;;;;;;4941183;29;20094;-56
2022/11/18 19:35:30;;;;;;;17.90;11.30;;;;;;;;;;4949145;29;20061;-59
2022/11/18 19:37:56;;;;;;;18.50;12.18;;;;;;;;;;4954978;29;20358;-72
2022/11/18 19:40:22;;;;;;;15.85;11.25;;;;;;;;;;4954584;29;20027;-59
2022/11/18 19:42:49;;;;;;;16.45;11.63;;;;;;;;;;4954769;29;20031;-59
2022/11/18 19:45:15;;;;;;;15.82;11.15;;;;;;;;;;4954786;29;20027;-59
2022/11/18 19:47:41;;;;;;;17.75;12.32;;;;;;;;;;4954857;29;20736;-67
2022/11/18 19:50:07;;;;;;;17.10;11.95;;;;;;;;;;4954374;29;20147;-74
2022/11/18 19:52:33;;;;;;;16.67;12.20;;;;;;;;;;4953837;29;20027;-59
2022/11/18 19:54:59;;;;;;;15.90;11.35;;;;;;;;;;4954118;29;20050;-68